Ocean City, Maryland
Current Conditions -  °F | °C
As of 10:53 AM on Thursday 27 Nov 2014 (Local Time) from KOXB Reporting Station
Few Clouds Few Clouds  
Wind Chill:   Ceiling: Unl
Heat Index:   Visibility: 10mi
Dew Point:   Wind: 7mph
Humidity: 68%   Direction: 340°NNW
Pressure: 30.05"   Gusts: NA
Location:  38.34°N, 75.08°W
Report Text: KOXB 271553Z AUTO 34006KT 10SM FEW085 07/01 A3005 RMK AO2 SLP174 T00670011 TSNO PNO $
Loading
Personal Weather Stations






























Interactive Weather Map New forecast layout! Learn more

10-Day Weather Forecast

Advertisements
Track Severe Weather on mobile